Accueil
METAR-TAF:

METAR-TAF

Aéroports :

Aéroport de Friedrichshafen

Friedrichshafen, Allemagne

latitude: 47-40N, longitude: 009-31E, altitude: 416 m

Observation

Le bulletin a été fait il y a 27 minutes, à 22:20 UTC
Vent 6 kt de nord/nord-est
Température -1°C
Humidité 86%
Pression 1005 hPa
Visibilité 10 km ou plus

METAR: EDNY 192220Z AUTO 02006KT 9999 // NCD M01/M03 Q1005

Heure: 23:47 (22:47 UTC)

Prévision

Le bulletin a été fait il y a 5 heures et 47 minutes, à 17:00 UTC
Prévision valable du 19 à 18 UTC au 20 à 18 UTC
Vent 12 kt de nord/nord-est
Visibilité 10 km ou plus
Quelques nuages à une hauteur de 2000 ft
Evoluant progressivement
du 20 à 01 UTC au 20 à 05 UTC
Vent 7 kt de nord/nord-est

TAF: EDNY 191700Z 1918/2018 02012KT 9999 FEW020 BECMG 2001/2005 02007KT

Observations et prévisions météorologiques de plus de 4000 aéroports (messages METAR et TAF).

Les stations disponibles sont représentées par des disques jaunes et rouges sur la carte.

Passer la souris dessus pour voir le nom de la station.

Cliquer dessus pour voir les observations et prévisions météorologiques.

Pour changer de carte: cliquez sur les boutons verts avec une croix noire pour zoomer, sur le bouton vert avec un tiret pour effectuer un zoom arrière, ou sur les flèches vertes pour les cartes adjacentes.


METAR-TAF: